Terminal Aerodrome Forecast
Issued by NWS Chicago, IL

Home | Current Version | Previous Version | Graphics & Text | Print | Product List | Glossary On
Versions: 1 2 3 4 5 6 7 8 9 10 11 12 13 14 15 16 17 18 19 20 21 22 23 24
522
FTUS43 KLOT 170838 AAA
TAFRFD
TAF AMD
KRFD 170838Z 1709/1806 19007KT P6SM SCT250 WS010/25040KT
     FM171400 22013G20KT P6SM FEW250
     FM171800 23015G24KT P6SM SKC
     FM180000 21009KT P6SM SKC=

USA.gov is the U.S. government's official web portal to all federal, state and local government web resources and services.